Time;durP1;ratioP1;P1;durP2;ratioP2;P2;SDS_P1;SDS_P2;PMS_P1;PMS_P2;Temp;Humidity;BMP_temperature;BMP_pressure;BME280_temperature;BME280_humidity;BME280_pressure;Samples;Min_cycle;Max_cycle;Signal;HPM_P1;HPM_P2
2023/04/02 00:01:37;;;;;;;86.68;5.45;;;;;;;;;;5015907;28;20040;-56
2023/04/02 00:04:04;;;;;;;127.70;6.93;;;;;;;;;;5015268;28;20112;-58
2023/04/02 00:06:31;;;;;;;78.57;4.70;;;;;;;;;;5017258;28;20042;-57
2023/04/02 00:09:03;;;;;;;91.28;5.68;;;;;;;;;;5018045;28;20199;-57
2023/04/02 00:11:30;;;;;;;103.85;5.90;;;;;;;;;;5017188;28;20037;-56
2023/04/02 00:13:59;;;;;;;154.23;8.68;;;;;;;;;;5016494;28;20033;-57
2023/04/02 00:16:26;;;;;;;115.32;6.63;;;;;;;;;;5016887;28;20037;-57
2023/04/02 00:18:53;;;;;;;126.57;7.03;;;;;;;;;;5015927;28;20049;-58
2023/04/02 00:21:23;;;;;;;114.88;6.28;;;;;;;;;;5016154;28;20040;-58
2023/04/02 00:23:49;;;;;;;122.65;6.82;;;;;;;;;;5016909;28;20037;-57
2023/04/02 00:26:20;;;;;;;123.75;6.88;;;;;;;;;;5015770;28;20037;-57
2023/04/02 00:28:46;;;;;;;107.93;6.17;;;;;;;;;;5016960;28;20049;-58
2023/04/02 00:31:11;;;;;;;99.38;5.90;;;;;;;;;;5016683;28;20642;-59
2023/04/02 00:33:36;;;;;;;103.87;5.97;;;;;;;;;;5014902;28;20040;-56
2023/04/02 00:36:04;;;;;;;90.85;5.72;;;;;;;;;;5016074;28;20290;-57
2023/04/02 00:38:31;;;;;;;138.00;7.70;;;;;;;;;;5017232;28;20372;-56
2023/04/02 00:40:58;;;;;;;129.88;7.07;;;;;;;;;;5017334;28;20436;-55
2023/04/02 00:43:27;;;;;;;143.65;8.02;;;;;;;;;;5016678;28;20247;-58
2023/04/02 00:45:54;;;;;;;118.07;6.97;;;;;;;;;;5015002;28;20229;-57
2023/04/02 00:48:34;;;;;;;94.15;5.75;;;;;;;;;;5015484;28;20056;-57
2023/04/02 00:51:12;;;;;;;132.82;7.43;;;;;;;;;;5015498;28;20078;-58
2023/04/02 00:53:38;;;;;;;137.65;7.65;;;;;;;;;;5016993;28;20057;-57
2023/04/02 00:56:11;;;;;;;124.82;7.28;;;;;;;;;;5016088;28;20060;-57
2023/04/02 00:58:36;;;;;;;111.20;6.85;;;;;;;;;;5017318;28;20096;-57
2023/04/02 01:01:03;;;;;;;140.93;7.68;;;;;;;;;;5016076;28;20025;-57
2023/04/02 01:03:34;;;;;;;139.07;7.85;;;;;;;;;;5014205;28;20470;-58
2023/04/02 01:06:12;;;;;;;125.90;7.68;;;;;;;;;;5014575;28;20052;-56
2023/04/02 01:08:37;;;;;;;119.40;7.57;;;;;;;;;;5016842;28;20571;-57
2023/04/02 01:11:02;;;;;;;132.17;7.53;;;;;;;;;;5016446;28;20044;-58
2023/04/02 01:13:47;;;;;;;142.57;7.87;;;;;;;;;;5015889;28;20708;-55
2023/04/02 01:16:16;;;;;;;114.35;6.88;;;;;;;;;;4990502;28;20106;-55
2023/04/02 01:19:01;;;;;;;114.25;6.90;;;;;;;;;;5014721;28;20510;-56
2023/04/02 01:21:45;;;;;;;106.80;6.53;;;;;;;;;;5016389;28;20084;-57
2023/04/02 01:24:11;;;;;;;145.45;8.55;;;;;;;;;;5012194;28;20021;-57
2023/04/02 01:26:51;;;;;;;89.32;5.90;;;;;;;;;;5016021;28;20045;-57
2023/04/02 01:29:19;;;;;;;73.68;4.97;;;;;;;;;;5019090;28;20245;-56
2023/04/02 01:31:45;;;;;;;96.65;6.10;;;;;;;;;;5017951;28;20034;-57
2023/04/02 01:34:12;;;;;;;100.80;6.55;;;;;;;;;;5018052;28;20040;-56
2023/04/02 01:36:37;;;;;;;80.38;5.05;;;;;;;;;;5018352;28;20033;-57
2023/04/02 01:39:16;;;;;;;68.75;5.22;;;;;;;;;;5018101;28;20222;-56
2023/04/02 01:41:41;;;;;;;72.63;5.03;;;;;;;;;;5018025;28;20096;-57
2023/04/02 01:44:08;;;;;;;117.47;7.20;;;;;;;;;;5017835;28;20399;-57
2023/04/02 01:46:36;;;;;;;93.15;5.75;;;;;;;;;;5018497;28;20068;-57
2023/04/02 01:49:08;;;;;;;87.65;5.78;;;;;;;;;;5018302;28;20574;-56
2023/04/02 01:51:34;;;;;;;69.10;4.82;;;;;;;;;;5018164;28;20522;-56
2023/04/02 01:54:02;;;;;;;119.82;7.50;;;;;;;;;;5017286;28;20080;-55
2023/04/02 01:56:27;;;;;;;87.05;5.60;;;;;;;;;;5017414;28;20033;-56
2023/04/02 01:58:53;;;;;;;67.40;5.05;;;;;;;;;;5018759;28;20467;-56
2023/04/02 02:01:20;;;;;;;99.53;6.10;;;;;;;;;;5017427;28;20037;-56
2023/04/02 02:03:45;;;;;;;72.25;4.80;;;;;;;;;;5018251;28;20025;-55
2023/04/02 02:06:13;;;;;;;73.95;5.18;;;;;;;;;;5017085;28;20048;-56
2023/04/02 02:09:04;;;;;;;81.30;5.57;;;;;;;;;;5017910;28;20465;-55
2023/04/02 02:11:30;;;;;;;92.88;6.13;;;;;;;;;;5018653;28;20041;-56
2023/04/02 02:13:57;;;;;;;118.82;7.43;;;;;;;;;;5017961;28;20622;-56
2023/04/02 02:16:23;;;;;;;78.28;5.38;;;;;;;;;;5017844;28;20578;-56
2023/04/02 02:18:50;;;;;;;90.47;6.13;;;;;;;;;;5018710;28;20024;-55
2023/04/02 02:21:36;;;;;;;81.68;5.70;;;;;;;;;;5017534;28;20064;-57
2023/04/02 02:24:03;;;;;;;158.00;9.32;;;;;;;;;;5016260;28;20056;-57
2023/04/02 02:26:32;;;;;;;70.60;5.40;;;;;;;;;;5017353;28;20125;-54
2023/04/02 02:28:59;;;;;;;88.78;5.63;;;;;;;;;;5017555;28;20021;-58
2023/04/02 02:31:28;;;;;;;121.50;7.32;;;;;;;;;;5017080;28;20057;-56
2023/04/02 02:33:59;;;;;;;80.88;5.85;;;;;;;;;;5016649;28;20064;-56
2023/04/02 02:36:28;;;;;;;102.40;6.78;;;;;;;;;;5016396;28;20419;-57
2023/04/02 02:39:12;;;;;;;63.45;4.93;;;;;;;;;;5017744;28;20018;-57
2023/04/02 02:41:43;;;;;;;84.22;6.13;;;;;;;;;;5016775;28;20522;-57
2023/04/02 02:44:08;;;;;;;88.17;6.23;;;;;;;;;;5016515;28;20072;-57
2023/04/02 02:46:38;;;;;;;93.33;6.53;;;;;;;;;;5016995;28;20160;-56
2023/04/02 02:49:03;;;;;;;73.03;5.43;;;;;;;;;;5017509;28;20211;-56
2023/04/02 02:51:38;;;;;;;84.40;6.05;;;;;;;;;;5017258;28;20208;-58
2023/04/02 02:54:04;;;;;;;101.40;6.80;;;;;;;;;;5020530;28;20533;-55
2023/04/02 02:56:30;;;;;;;89.55;6.30;;;;;;;;;;5020329;28;20397;-54
2023/04/02 02:58:56;;;;;;;89.32;6.25;;;;;;;;;;5021119;28;20108;-57
2023/04/02 03:01:21;;;;;;;76.13;5.75;;;;;;;;;;5021113;28;20056;-57
2023/04/02 03:03:47;;;;;;;96.57;6.68;;;;;;;;;;5021100;28;20379;-56
2023/04/02 03:06:16;;;;;;;95.55;6.63;;;;;;;;;;5020680;28;20104;-56
2023/04/02 03:08:52;;;;;;;65.95;5.35;;;;;;;;;;5020716;28;20171;-55
2023/04/02 03:11:40;;;;;;;92.05;6.32;;;;;;;;;;5021911;28;20057;-57
2023/04/02 03:14:19;;;;;;;132.13;8.07;;;;;;;;;;5016160;28;20072;-56
2023/04/02 03:16:47;;;;;;;77.82;5.85;;;;;;;;;;5021391;28;20037;-55
2023/04/02 03:19:15;;;;;;;68.43;5.20;;;;;;;;;;5021489;28;20636;-56
2023/04/02 03:21:50;;;;;;;77.45;5.50;;;;;;;;;;5020845;28;20041;-57
2023/04/02 03:24:35;;;;;;;100.90;6.82;;;;;;;;;;5019657;28;20031;-56
2023/04/02 03:27:16;;;;;;;73.40;5.65;;;;;;;;;;4998736;28;20060;-57
2023/04/02 03:29:45;;;;;;;93.72;6.50;;;;;;;;;;5021259;28;20020;-57
2023/04/02 03:32:10;;;;;;;76.32;5.55;;;;;;;;;;5020130;28;20038;-55
2023/04/02 03:34:41;;;;;;;94.43;6.50;;;;;;;;;;5019998;28;20032;-57
2023/04/02 03:37:09;;;;;;;80.70;6.25;;;;;;;;;;5019771;28;20267;-57
2023/04/02 03:39:42;;;;;;;85.50;6.18;;;;;;;;;;5020652;28;20204;-55
2023/04/02 03:42:20;;;;;;;77.93;6.07;;;;;;;;;;5020438;28;20043;-54
2023/04/02 03:44:55;;;;;;;77.80;6.18;;;;;;;;;;5019855;28;20095;-56
2023/04/02 03:47:29;;;;;;;80.85;6.30;;;;;;;;;;5020204;28;20448;-55
2023/04/02 03:49:57;;;;;;;94.40;6.90;;;;;;;;;;5020964;28;20135;-56
2023/04/02 03:52:25;;;;;;;91.30;6.68;;;;;;;;;;5018387;28;20053;-56
2023/04/02 03:54:50;;;;;;;85.80;6.47;;;;;;;;;;5018753;28;20115;-57
2023/04/02 03:57:42;;;;;;;89.57;7.00;;;;;;;;;;5019568;28;20140;-56
2023/04/02 04:00:15;;;;;;;77.90;6.13;;;;;;;;;;5011391;28;20040;-56
2023/04/02 04:02:45;;;;;;;70.97;5.80;;;;;;;;;;5019283;28;20565;-54
2023/04/02 04:05:28;;;;;;;69.90;5.60;;;;;;;;;;5018083;28;20562;-54
2023/04/02 04:07:55;;;;;;;95.10;7.00;;;;;;;;;;5019877;28;20065;-56
2023/04/02 04:10:24;;;;;;;102.22;7.28;;;;;;;;;;5019720;28;20083;-54
2023/04/02 04:12:51;;;;;;;84.07;6.90;;;;;;;;;;5020036;28;20025;-55
2023/04/02 04:15:19;;;;;;;92.32;7.25;;;;;;;;;;5018349;28;20025;-56
2023/04/02 04:17:50;;;;;;;98.03;7.45;;;;;;;;;;5019729;28;20024;-56
2023/04/02 04:20:34;;;;;;;87.95;7.13;;;;;;;;;;5019487;28;20475;-57
2023/04/02 04:23:18;;;;;;;76.95;6.55;;;;;;;;;;5020285;28;20029;-56
2023/04/02 04:25:44;;;;;;;64.18;5.88;;;;;;;;;;5017744;28;20141;-57
2023/04/02 04:28:23;;;;;;;78.28;6.85;;;;;;;;;;5019895;28;20357;-56
2023/04/02 04:30:58;;;;;;;89.82;6.50;;;;;;;;;;5018866;28;20028;-57
2023/04/02 04:33:33;;;;;;;96.30;7.43;;;;;;;;;;5019324;28;20033;-55
2023/04/02 04:35:59;;;;;;;97.18;7.50;;;;;;;;;;5018520;28;20033;-57
2023/04/02 04:38:31;;;;;;;88.45;6.95;;;;;;;;;;5019505;28;20047;-56
2023/04/02 04:41:00;;;;;;;91.15;7.10;;;;;;;;;;5019144;28;20159;-56
2023/04/02 04:43:37;;;;;;;106.07;7.78;;;;;;;;;;5019058;28;20029;-55
2023/04/02 04:46:04;;;;;;;75.28;6.43;;;;;;;;;;5018188;28;20037;-55
2023/04/02 04:48:46;;;;;;;79.57;7.10;;;;;;;;;;5019655;28;20033;-56
2023/04/02 04:51:17;;;;;;;75.30;7.50;;;;;;;;;;5019240;28;20412;-57
2023/04/02 04:53:46;;;;;;;80.32;6.95;;;;;;;;;;5019345;28;20071;-57
2023/04/02 04:56:12;;;;;;;70.15;7.07;;;;;;;;;;5018242;28;20452;-57
2023/04/02 04:58:44;;;;;;;92.97;8.00;;;;;;;;;;5019388;28;20505;-58
2023/04/02 05:01:10;;;;;;;90.82;7.60;;;;;;;;;;5018625;28;20034;-56
2023/04/02 05:03:43;;;;;;;121.50;9.23;;;;;;;;;;5018836;28;20021;-58
2023/04/02 05:06:16;;;;;;;84.85;7.60;;;;;;;;;;5017871;28;20037;-58
2023/04/02 05:08:44;;;;;;;69.40;7.13;;;;;;;;;;5018945;28;20021;-57
2023/04/02 05:11:40;;;;;;;85.53;7.50;;;;;;;;;;5018552;28;20240;-57
2023/04/02 05:14:07;;;;;;;122.50;8.98;;;;;;;;;;5013468;28;20033;-58
2023/04/02 05:16:32;;;;;;;80.88;7.47;;;;;;;;;;5017756;28;20372;-56
2023/04/02 05:19:02;;;;;;;99.27;7.93;;;;;;;;;;5018556;28;20026;-56
2023/04/02 05:21:36;;;;;;;111.80;8.45;;;;;;;;;;5017997;28;20851;-58
2023/04/02 05:24:20;;;;;;;108.10;8.90;;;;;;;;;;5018069;28;20314;-57
2023/04/02 05:26:46;;;;;;;80.63;7.18;;;;;;;;;;5018050;28;20641;-59
2023/04/02 05:29:21;;;;;;;92.00;7.53;;;;;;;;;;5018701;28;20038;-56
2023/04/02 05:31:48;;;;;;;111.18;8.32;;;;;;;;;;5018407;28;20427;-58
2023/04/02 05:34:20;;;;;;;85.90;7.47;;;;;;;;;;5017679;28;20071;-59
2023/04/02 05:36:45;;;;;;;101.10;8.43;;;;;;;;;;5017962;28;20299;-58
2023/04/02 05:39:11;;;;;;;77.63;7.35;;;;;;;;;;5018551;28;20017;-58
2023/04/02 05:41:42;;;;;;;78.78;7.32;;;;;;;;;;5018060;28;20080;-59
2023/04/02 05:44:10;;;;;;;107.43;8.95;;;;;;;;;;5017255;28;20114;-58
2023/04/02 05:46:39;;;;;;;81.65;7.38;;;;;;;;;;5017630;28;20562;-57
2023/04/02 05:49:08;;;;;;;90.75;7.20;;;;;;;;;;5018460;28;20052;-56
2023/04/02 05:51:44;;;;;;;73.88;7.10;;;;;;;;;;5017849;28;20052;-58
2023/04/02 05:54:22;;;;;;;126.53;9.13;;;;;;;;;;5016927;28;20029;-58
2023/04/02 05:56:48;;;;;;;81.53;7.28;;;;;;;;;;5017698;28;20040;-58
2023/04/02 05:59:14;;;;;;;76.28;7.22;;;;;;;;;;5018115;28;20423;-58
2023/04/02 06:01:44;;;;;;;65.20;6.47;;;;;;;;;;5017355;28;20029;-58
2023/04/02 06:04:28;;;;;;;126.13;9.02;;;;;;;;;;5020860;28;20114;-57
2023/04/02 06:06:58;;;;;;;90.97;7.70;;;;;;;;;;5017268;28;20104;-58
2023/04/02 06:09:23;;;;;;;101.00;8.18;;;;;;;;;;5018122;28;20446;-58
2023/04/02 06:11:52;;;;;;;69.00;6.82;;;;;;;;;;5017298;28;20282;-58
2023/04/02 06:14:17;;;;;;;110.80;8.60;;;;;;;;;;5007853;28;20033;-57
2023/04/02 06:16:44;;;;;;;86.22;7.40;;;;;;;;;;5017482;28;20073;-56
2023/04/02 06:19:14;;;;;;;90.90;8.50;;;;;;;;;;5017722;28;20415;-59
2023/04/02 06:21:44;;;;;;;74.63;7.68;;;;;;;;;;5017462;28;20061;-57
2023/04/02 06:24:10;;;;;;;98.63;8.48;;;;;;;;;;5016575;28;20144;-58
2023/04/02 06:26:38;;;;;;;95.78;8.63;;;;;;;;;;5016617;28;20038;-58
2023/04/02 06:29:11;;;;;;;94.45;8.15;;;;;;;;;;5018092;28;20029;-57
2023/04/02 06:31:45;;;;;;;108.95;9.63;;;;;;;;;;5016804;28;20123;-57
2023/04/02 06:34:17;;;;;;;120.47;9.90;;;;;;;;;;5016898;28;20029;-57
2023/04/02 06:36:43;;;;;;;91.78;8.43;;;;;;;;;;5016904;28;20030;-57
2023/04/02 06:39:13;;;;;;;80.22;8.40;;;;;;;;;;5017798;28;20450;-58
2023/04/02 06:41:38;;;;;;;86.35;9.00;;;;;;;;;;5017125;28;20042;-57
2023/04/02 06:44:08;;;;;;;125.13;11.15;;;;;;;;;;5016317;28;20074;-54
2023/04/02 06:46:42;;;;;;;84.60;8.70;;;;;;;;;;5016765;28;20110;-59
2023/04/02 06:49:26;;;;;;;93.72;9.50;;;;;;;;;;5016907;28;20498;-56
2023/04/02 06:51:53;;;;;;;101.85;9.90;;;;;;;;;;5016798;28;20048;-57
2023/04/02 06:54:18;;;;;;;89.30;7.78;;;;;;;;;;5016064;28;20486;-58
2023/04/02 06:56:45;;;;;;;82.60;8.75;;;;;;;;;;5017346;28;20045;-55
2023/04/02 06:59:11;;;;;;;123.60;10.43;;;;;;;;;;5016946;28;20053;-56
2023/04/02 07:02:01;;;;;;;147.35;12.25;;;;;;;;;;5008462;28;20030;-54
2023/04/02 07:04:26;;;;;;;91.07;8.32;;;;;;;;;;5012472;28;20044;-56
2023/04/02 07:06:52;;;;;;;67.18;8.18;;;;;;;;;;5019457;28;20037;-57
2023/04/02 07:09:18;;;;;;;91.10;10.25;;;;;;;;;;5018946;28;20444;-57
2023/04/02 07:11:43;;;;;;;74.20;8.30;;;;;;;;;;5019742;28;20040;-57
2023/04/02 07:14:11;;;;;;;121.40;11.10;;;;;;;;;;5019416;28;20026;-57
2023/04/02 07:16:37;;;;;;;87.28;10.55;;;;;;;;;;5018944;28;20121;-61
2023/04/02 07:19:03;;;;;;;66.70;9.40;;;;;;;;;;5019399;28;20083;-57
2023/04/02 07:21:28;;;;;;;86.38;10.27;;;;;;;;;;5019049;28;20034;-57
2023/04/02 07:23:54;;;;;;;83.82;10.23;;;;;;;;;;5011760;28;20432;-57
2023/04/02 07:26:22;;;;;;;87.45;10.85;;;;;;;;;;5019183;28;20046;-57
2023/04/02 07:28:47;;;;;;;122.57;12.38;;;;;;;;;;5019123;28;20552;-57
2023/04/02 07:31:16;;;;;;;73.78;8.68;;;;;;;;;;5019194;28;20037;-56
2023/04/02 07:33:42;;;;;;;88.75;11.00;;;;;;;;;;5016428;28;20021;-56
2023/04/02 07:36:11;;;;;;;92.90;10.45;;;;;;;;;;5017798;28;20032;-58
2023/04/02 07:38:36;;;;;;;68.72;9.20;;;;;;;;;;5021305;28;20388;-57
2023/04/02 07:41:05;;;;;;;106.80;11.83;;;;;;;;;;5022501;28;20545;-57
2023/04/02 07:43:30;;;;;;;111.28;11.63;;;;;;;;;;5022980;28;20641;-60
2023/04/02 07:45:56;;;;;;;77.13;10.10;;;;;;;;;;5022131;28;20523;-57
2023/04/02 07:48:22;;;;;;;80.17;9.93;;;;;;;;;;5022463;28;20419;-56
2023/04/02 07:50:47;;;;;;;74.25;9.18;;;;;;;;;;5022641;28;20669;-57
2023/04/02 07:53:26;;;;;;;90.37;10.13;;;;;;;;;;5020309;28;20247;-56
2023/04/02 07:55:51;;;;;;;84.63;8.85;;;;;;;;;;5021231;28;20419;-56
2023/04/02 07:58:17;;;;;;;88.75;8.77;;;;;;;;;;5022298;28;20187;-56
2023/04/02 08:00:42;;;;;;;58.28;5.18;;;;;;;;;;5022710;28;20113;-56
2023/04/02 08:03:08;;;;;;;62.40;3.97;;;;;;;;;;5022951;28;20052;-57
2023/04/02 08:05:34;;;;;;;66.88;4.35;;;;;;;;;;5021111;28;20287;-57
2023/04/02 08:07:59;;;;;;;69.82;4.38;;;;;;;;;;5023118;28;20025;-57
2023/04/02 08:10:25;;;;;;;68.68;4.22;;;;;;;;;;5021917;28;20569;-57
2023/04/02 08:12:50;;;;;;;76.80;4.60;;;;;;;;;;5022788;28;20185;-57
2023/04/02 08:15:15;;;;;;;71.50;4.03;;;;;;;;;;5021255;28;20041;-56
2023/04/02 08:17:41;;;;;;;60.97;3.80;;;;;;;;;;5022355;28;20029;-55
2023/04/02 08:20:10;;;;;;;54.45;3.47;;;;;;;;;;5022550;28;20028;-56
2023/04/02 08:22:36;;;;;;;50.63;3.20;;;;;;;;;;5022603;28;20090;-55
2023/04/02 08:25:01;;;;;;;82.25;4.53;;;;;;;;;;5020491;28;20026;-56
2023/04/02 08:27:26;;;;;;;63.88;4.22;;;;;;;;;;5020938;28;20060;-56
2023/04/02 08:29:51;;;;;;;63.23;3.83;;;;;;;;;;5023151;28;20079;-55
2023/04/02 08:32:17;;;;;;;71.93;4.18;;;;;;;;;;5022021;28;20398;-56
2023/04/02 08:34:42;;;;;;;61.30;3.97;;;;;;;;;;5022385;28;20025;-55
2023/04/02 08:37:09;;;;;;;72.95;4.68;;;;;;;;;;5019322;28;20532;-56
2023/04/02 08:39:34;;;;;;;46.97;3.33;;;;;;;;;;5022532;28;20470;-57
2023/04/02 08:42:06;;;;;;;68.13;3.70;;;;;;;;;;5022032;28;20141;-56
2023/04/02 08:45:05;;;;;;;67.38;4.03;;;;;;;;;;5020483;28;20022;-56
2023/04/02 08:47:31;;;;;;;90.28;5.28;;;;;;;;;;5017237;28;20049;-56
2023/04/02 08:49:59;;;;;;;72.10;4.22;;;;;;;;;;5018401;28;20021;-55
2023/04/02 08:52:27;;;;;;;65.10;4.38;;;;;;;;;;5005713;28;20156;-56
2023/04/02 08:54:55;;;;;;;58.00;3.78;;;;;;;;;;5018705;28;20490;-56
2023/04/02 08:57:29;;;;;;;73.57;4.35;;;;;;;;;;5020743;28;20460;-56
2023/04/02 09:00:19;;;;;;;72.38;4.30;;;;;;;;;;5017735;28;20317;-54
2023/04/02 09:02:56;;;;;;;70.40;4.40;;;;;;;;;;5016835;28;20037;-56
2023/04/02 09:05:27;;;;;;;58.70;3.88;;;;;;;;;;5019385;28;20033;-55
2023/04/02 09:07:53;;;;;;;80.50;4.57;;;;;;;;;;5020669;28;20541;-56
2023/04/02 09:10:20;;;;;;;62.40;3.83;;;;;;;;;;5019664;28;20025;-56
2023/04/02 09:12:50;;;;;;;62.30;3.80;;;;;;;;;;5022099;28;20028;-56
2023/04/02 09:15:21;;;;;;;56.25;3.70;;;;;;;;;;5020648;28;20021;-55
2023/04/02 09:17:46;;;;;;;68.68;4.22;;;;;;;;;;5019519;28;20479;-56
2023/04/02 09:20:23;;;;;;;104.60;5.93;;;;;;;;;;5018082;28;20116;-54
2023/04/02 09:22:50;;;;;;;51.58;3.55;;;;;;;;;;5020131;28;20132;-55
2023/04/02 09:25:22;;;;;;;78.85;4.57;;;;;;;;;;5018755;28;20033;-54
2023/04/02 09:27:49;;;;;;;64.70;3.85;;;;;;;;;;5021529;28;20476;-55
2023/04/02 09:30:17;;;;;;;63.42;3.85;;;;;;;;;;5021525;28;20025;-55
2023/04/02 09:32:51;;;;;;;69.85;4.35;;;;;;;;;;5021780;28;20057;-55
2023/04/02 09:35:24;;;;;;;66.13;4.07;;;;;;;;;;5020333;28;20025;-54
2023/04/02 09:38:13;;;;;;;66.35;4.13;;;;;;;;;;5021264;28;20105;-54
2023/04/02 09:40:41;;;;;;;72.43;4.40;;;;;;;;;;5014868;28;20048;-55
2023/04/02 09:43:12;;;;;;;66.55;4.22;;;;;;;;;;5018723;28;20443;-56
2023/04/02 09:45:38;;;;;;;64.30;4.22;;;;;;;;;;5018982;28;20037;-56
2023/04/02 09:48:14;;;;;;;95.72;5.60;;;;;;;;;;5017524;28;20048;-55
2023/04/02 09:50:39;;;;;;;77.57;4.68;;;;;;;;;;5019730;28;20045;-55
2023/04/02 09:53:28;;;;;;;86.93;5.10;;;;;;;;;;5020110;28;20605;-56
2023/04/02 09:56:07;;;;;;;67.25;4.03;;;;;;;;;;5004911;28;20139;-56
2023/04/02 09:58:32;;;;;;;98.50;5.47;;;;;;;;;;5016161;28;20021;-55
2023/04/02 10:00:57;;;;;;;106.78;5.57;;;;;;;;;;5015712;28;20612;-56
2023/04/02 10:03:27;;;;;;;120.85;6.57;;;;;;;;;;5016409;28;20071;-55
2023/04/02 10:06:03;;;;;;;104.60;5.68;;;;;;;;;;5015758;28;20037;-56
2023/04/02 10:08:29;;;;;;;80.75;4.78;;;;;;;;;;5017373;28;20171;-56
2023/04/02 10:10:56;;;;;;;64.22;4.13;;;;;;;;;;5013670;28;20124;-55
2023/04/02 10:13:21;;;;;;;79.75;4.55;;;;;;;;;;5016261;28;20071;-56
2023/04/02 10:15:56;;;;;;;75.30;4.57;;;;;;;;;;5016433;28;20037;-54
2023/04/02 10:18:40;;;;;;;83.47;4.65;;;;;;;;;;5017483;28;20764;-55
2023/04/02 10:21:05;;;;;;;78.45;4.50;;;;;;;;;;5016749;28;20129;-56
2023/04/02 10:23:31;;;;;;;80.10;4.47;;;;;;;;;;5017187;28;20120;-55
2023/04/02 10:26:00;;;;;;;76.55;4.57;;;;;;;;;;5013784;28;20033;-56
2023/04/02 10:28:37;;;;;;;68.78;3.90;;;;;;;;;;5016605;28;20946;-56
2023/04/02 10:31:21;;;;;;;131.73;6.65;;;;;;;;;;5016832;28;20510;-56
2023/04/02 10:33:49;;;;;;;61.33;3.53;;;;;;;;;;5017134;28;20036;-56
2023/04/02 10:36:34;;;;;;;77.35;4.60;;;;;;;;;;5016026;28;20149;-56
2023/04/02 10:39:12;;;;;;;92.75;5.00;;;;;;;;;;5015928;28;20014;-54
2023/04/02 10:41:37;;;;;;;75.55;4.40;;;;;;;;;;5014802;28;20041;-54
2023/04/02 10:44:25;;;;;;;104.40;5.97;;;;;;;;;;5016938;28;20021;-56
2023/04/02 10:46:50;;;;;;;64.53;3.72;;;;;;;;;;5016684;28;20056;-54
2023/04/02 10:49:28;;;;;;;77.82;4.50;;;;;;;;;;5016974;28;20025;-56
2023/04/02 10:52:12;;;;;;;86.97;5.07;;;;;;;;;;5016411;28;20450;-58
2023/04/02 10:54:45;;;;;;;75.97;4.55;;;;;;;;;;5013028;28;20058;-57
2023/04/02 10:57:20;;;;;;;62.72;3.72;;;;;;;;;;5014899;28;20045;-57
2023/04/02 10:59:48;;;;;;;108.43;6.00;;;;;;;;;;5016433;28;20136;-56
2023/04/02 11:02:32;;;;;;;97.07;5.00;;;;;;;;;;5016637;28;20286;-57
2023/04/02 11:05:00;;;;;;;95.07;5.28;;;;;;;;;;5015333;28;20502;-57
2023/04/02 11:07:27;;;;;;;81.07;4.55;;;;;;;;;;5015662;28;20033;-58
2023/04/02 11:09:55;;;;;;;106.32;5.72;;;;;;;;;;5015386;28;20065;-59
2023/04/02 11:12:24;;;;;;;101.03;5.40;;;;;;;;;;5015413;28;20041;-60
2023/04/02 11:14:50;;;;;;;106.38;5.72;;;;;;;;;;5019530;28;20609;-59
2023/04/02 11:17:16;;;;;;;120.65;6.47;;;;;;;;;;5019828;28;20034;-61
2023/04/02 11:19:42;;;;;;;94.20;5.32;;;;;;;;;;5020405;28;20022;-60
2023/04/02 11:22:21;;;;;;;95.80;5.47;;;;;;;;;;5019726;28;20037;-60
2023/04/02 11:24:54;;;;;;;53.33;3.47;;;;;;;;;;5018370;28;20017;-60
2023/04/02 11:27:22;;;;;;;75.38;4.45;;;;;;;;;;5018222;28;20029;-60
2023/04/02 11:29:50;;;;;;;83.40;4.95;;;;;;;;;;5020492;28;20735;-59
2023/04/02 11:32:19;;;;;;;112.05;6.25;;;;;;;;;;5019621;28;20541;-61
2023/04/02 11:34:47;;;;;;;110.82;5.80;;;;;;;;;;5018889;28;20554;-61
2023/04/02 11:37:33;;;;;;;112.43;6.13;;;;;;;;;;5019414;28;20345;-60
2023/04/02 11:40:10;;;;;;;81.57;4.63;;;;;;;;;;5018920;28;20450;-60
2023/04/02 11:42:40;;;;;;;111.35;6.15;;;;;;;;;;5018877;28;20102;-59
2023/04/02 11:45:24;;;;;;;100.55;5.60;;;;;;;;;;5018791;28;20029;-60
2023/04/02 11:48:04;;;;;;;114.82;6.25;;;;;;;;;;5020042;28;20025;-59
2023/04/02 11:50:30;;;;;;;96.38;5.40;;;;;;;;;;5018061;28;20030;-59
2023/04/02 11:53:02;;;;;;;103.68;5.60;;;;;;;;;;5018932;28;20029;-60
2023/04/02 11:55:31;;;;;;;69.30;4.07;;;;;;;;;;5015408;28;20040;-60
2023/04/02 11:58:15;;;;;;;72.85;3.80;;;;;;;;;;5018962;28;20021;-60
2023/04/02 12:00:55;;;;;;;112.15;5.95;;;;;;;;;;5018621;28;20030;-59
2023/04/02 12:03:35;;;;;;;69.03;4.03;;;;;;;;;;5019782;28;20033;-60
2023/04/02 12:06:12;;;;;;;113.85;5.95;;;;;;;;;;5018673;28;20049;-60
2023/04/02 12:08:41;;;;;;;89.65;4.68;;;;;;;;;;5019992;28;20049;-60
2023/04/02 12:11:07;;;;;;;126.90;6.65;;;;;;;;;;5016702;28;20037;-61
2023/04/02 12:13:52;;;;;;;124.40;6.55;;;;;;;;;;5019200;28;20021;-60
2023/04/02 12:16:18;;;;;;;70.68;4.07;;;;;;;;;;5018823;28;20413;-60
2023/04/02 12:18:52;;;;;;;80.07;4.20;;;;;;;;;;5012951;28;20541;-59
2023/04/02 12:21:18;;;;;;;74.60;4.13;;;;;;;;;;5019777;28;20056;-58
2023/04/02 12:23:45;;;;;;;107.50;5.63;;;;;;;;;;5018521;28;20021;-61
2023/04/02 12:26:25;;;;;;;103.10;5.28;;;;;;;;;;5016112;28;20041;-60
2023/04/02 12:28:50;;;;;;;106.90;5.47;;;;;;;;;;5017206;28;20551;-62
2023/04/02 12:31:17;;;;;;;94.10;4.82;;;;;;;;;;5019250;28;20033;-60
2023/04/02 12:33:43;;;;;;;87.70;4.60;;;;;;;;;;5019004;28;20457;-61
2023/04/02 12:36:12;;;;;;;90.75;4.60;;;;;;;;;;5018419;28;20491;-61
2023/04/02 12:38:45;;;;;;;122.90;6.10;;;;;;;;;;5018131;28;20029;-60
2023/04/02 12:41:26;;;;;;;91.82;4.93;;;;;;;;;;5016761;28;20243;-60
2023/04/02 12:44:03;;;;;;;87.05;4.68;;;;;;;;;;5019504;28;20522;-59
2023/04/02 12:46:30;;;;;;;77.72;4.35;;;;;;;;;;5019091;28;20041;-59
2023/04/02 12:49:00;;;;;;;69.18;3.72;;;;;;;;;;5019547;28;20103;-59
2023/04/02 12:51:26;;;;;;;84.00;4.60;;;;;;;;;;5018448;28;20076;-59
2023/04/02 12:53:51;;;;;;;82.25;4.45;;;;;;;;;;5018451;28;20313;-60
2023/04/02 12:56:18;;;;;;;82.38;5.13;;;;;;;;;;5015241;28;20068;-59
2023/04/02 12:58:50;;;;;;;53.20;3.92;;;;;;;;;;5018942;28;20052;-60
2023/04/02 13:01:20;;;;;;;63.58;4.13;;;;;;;;;;5018615;28;20304;-61
2023/04/02 13:04:15;;;;;;;111.68;6.30;;;;;;;;;;5018253;28;20076;-59
2023/04/02 13:06:46;;;;;;;123.63;7.05;;;;;;;;;;5013194;28;20510;-59
2023/04/02 13:09:30;;;;;;;152.02;8.73;;;;;;;;;;5017359;28;20021;-59
2023/04/02 13:11:55;;;;;;;87.63;5.60;;;;;;;;;;5016551;28;20078;-59
2023/04/02 13:14:23;;;;;;;84.03;5.68;;;;;;;;;;5017491;28;20029;-59
2023/04/02 13:16:48;;;;;;;63.15;4.35;;;;;;;;;;5017922;28;20033;-59
2023/04/02 13:19:16;;;;;;;75.05;4.85;;;;;;;;;;5019326;28;20095;-59
2023/04/02 13:21:42;;;;;;;90.35;5.60;;;;;;;;;;5017445;28;20022;-59
2023/04/02 13:24:36;;;;;;;154.93;8.70;;;;;;;;;;5016939;28;20071;-59
2023/04/02 13:27:02;;;;;;;98.25;5.95;;;;;;;;;;5011299;28;20037;-57
2023/04/02 13:29:31;;;;;;;84.43;5.57;;;;;;;;;;5019095;28;20091;-57
2023/04/02 13:32:01;;;;;;;103.25;6.45;;;;;;;;;;5018514;28;20040;-57
2023/04/02 13:34:26;;;;;;;125.05;7.45;;;;;;;;;;5017541;28;20116;-58
2023/04/02 13:36:52;;;;;;;105.15;6.78;;;;;;;;;;5018133;28;20026;-58
2023/04/02 13:39:19;;;;;;;118.28;7.20;;;;;;;;;;5018105;28;20025;-59
2023/04/02 13:41:46;;;;;;;109.53;6.57;;;;;;;;;;5015977;28;20529;-60
2023/04/02 13:44:17;;;;;;;159.70;9.32;;;;;;;;;;5017353;28;20116;-59
2023/04/02 13:46:43;;;;;;;86.78;5.57;;;;;;;;;;5017974;28;20124;-61
2023/04/02 13:49:08;;;;;;;98.00;6.63;;;;;;;;;;5018217;28;20104;-61
2023/04/02 13:51:38;;;;;;;96.78;7.22;;;;;;;;;;5017413;28;20403;-61
2023/04/02 13:54:07;;;;;;;125.72;7.35;;;;;;;;;;5015599;28;20025;-60
2023/04/02 13:56:32;;;;;;;76.22;6.25;;;;;;;;;;5015259;28;20575;-60
2023/04/02 13:58:57;;;;;;;91.60;7.23;;;;;;;;;;5016992;28;20017;-60
2023/04/02 14:01:23;;;;;;;71.38;6.15;;;;;;;;;;5017059;28;20272;-60
2023/04/02 14:03:48;;;;;;;59.65;5.55;;;;;;;;;;5017762;28;20051;-60
2023/04/02 14:06:34;;;;;;;67.35;6.07;;;;;;;;;;5016748;28;20918;-59
2023/04/02 14:09:00;;;;;;;106.38;7.55;;;;;;;;;;5016698;28;20136;-59
2023/04/02 14:11:28;;;;;;;111.70;8.25;;;;;;;;;;5014502;28;20080;-59
2023/04/02 14:14:23;;;;;;;110.05;7.15;;;;;;;;;;5017199;28;20044;-60
2023/04/02 14:17:06;;;;;;;90.57;7.03;;;;;;;;;;5010297;28;20502;-61
2023/04/02 14:19:31;;;;;;;129.35;7.93;;;;;;;;;;5017177;28;20126;-60
2023/04/02 14:22:05;;;;;;;106.47;7.03;;;;;;;;;;5017392;28;20116;-58
2023/04/02 14:24:36;;;;;;;119.88;7.40;;;;;;;;;;5015924;28;20276;-59
2023/04/02 14:27:01;;;;;;;95.37;6.57;;;;;;;;;;5013058;28;20856;-61
2023/04/02 14:29:46;;;;;;;101.63;5.70;;;;;;;;;;5018219;28;20655;-59
2023/04/02 14:32:30;;;;;;;205.13;12.23;;;;;;;;;;5014363;28;20355;-59
2023/04/02 14:35:34;;;;;;;64.90;5.32;;;;;;;;;;5015317;28;20024;-60
2023/04/02 14:37:59;;;;;;;117.95;7.07;;;;;;;;;;4989272;28;20042;-59
2023/04/02 14:40:33;;;;;;;104.95;5.93;;;;;;;;;;4985845;28;20118;-60
2023/04/02 14:43:01;;;;;;;150.60;8.30;;;;;;;;;;5000844;28;20037;-60
2023/04/02 14:45:33;;;;;;;89.45;6.40;;;;;;;;;;5015112;28;20116;-60
2023/04/02 14:48:01;;;;;;;97.87;6.37;;;;;;;;;;5015801;28;20109;-60